createdAt,value
2023-03-29T00:00:38.298Z,68.9330
2023-03-29T00:02:41.472Z,70.3821
2023-03-29T00:03:43.047Z,72.2893
2023-03-29T00:04:43.004Z,72.7126
2023-03-29T00:05:43.039Z,74.2726
2023-03-29T00:06:43.049Z,75.3941
2023-03-29T00:07:44.268Z,76.3537
2023-03-29T00:08:44.394Z,76.2301
2023-03-29T00:09:45.642Z,76.7506
2023-03-29T00:10:45.732Z,76.8106
2023-03-29T00:11:46.953Z,76.4257
2023-03-29T00:12:48.283Z,77.8067
2023-03-29T00:13:49.526Z,75.4367
2023-03-29T00:14:50.929Z,73.0417
2023-03-29T00:15:52.111Z,74.4580
2023-03-29T00:16:53.690Z,74.0946
2023-03-29T00:17:55.082Z,72.1414
2023-03-29T00:18:55.172Z,73.2629
2023-03-29T00:19:56.427Z,73.2543
2023-03-29T00:20:57.813Z,72.3683
2023-03-29T00:21:59.037Z,72.2426
2023-03-29T00:22:59.476Z,72.1153
2023-03-29T00:24:00.674Z,71.8546
2023-03-29T00:25:00.714Z,71.8860
2023-03-29T00:26:02.031Z,71.0723
2023-03-29T00:27:03.565Z,71.1406
2023-03-29T00:28:04.854Z,72.9784
2023-03-29T00:29:06.219Z,73.9941
2023-03-29T00:30:07.429Z,70.5201
2023-03-29T00:31:08.898Z,72.0395
2023-03-29T00:32:10.207Z,69.3428
2023-03-29T00:33:10.357Z,68.6702
2023-03-29T00:34:11.622Z,65.9056
2023-03-29T00:35:11.631Z,63.3350
2023-03-29T00:36:12.907Z,66.8725
2023-03-29T00:37:12.974Z,68.5959
2023-03-29T00:38:14.181Z,67.4676
2023-03-29T00:39:15.492Z,67.7954
2023-03-29T00:40:16.803Z,65.3993
2023-03-29T00:41:17.186Z,68.1188
2023-03-29T00:42:18.386Z,68.3396
2023-03-29T00:43:18.479Z,67.2927
2023-03-29T00:44:19.791Z,63.7331
2023-03-29T00:45:21.228Z,64.4041
2023-03-29T00:46:22.659Z,63.2407
2023-03-29T00:47:22.957Z,64.7464
2023-03-29T00:48:24.369Z,66.0495
2023-03-29T00:49:24.369Z,65.7725
2023-03-29T00:50:25.571Z,65.7827
2023-03-29T00:51:26.956Z,67.0582
2023-03-29T00:52:28.231Z,67.4561
2023-03-29T00:53:29.679Z,68.5631
2023-03-29T00:54:30.959Z,68.5060
2023-03-29T00:55:32.392Z,66.4944
2023-03-29T00:56:32.488Z,66.5535
2023-03-29T00:57:34.012Z,64.6264
2023-03-29T00:58:35.246Z,64.2165
2023-03-29T00:59:36.724Z,63.6526
2023-03-29T01:00:38.048Z,66.0820
2023-03-29T01:01:38.179Z,66.0590
2023-03-29T01:02:38.456Z,63.6621
2023-03-29T01:03:40.163Z,61.7846
2023-03-29T01:04:41.444Z,62.1373
2023-03-29T01:05:42.750Z,62.2820
2023-03-29T01:06:43.864Z,62.2064
2023-03-29T01:07:44.524Z,62.8154
2023-03-29T01:08:45.745Z,64.5598
2023-03-29T01:09:45.852Z,63.2849
2023-03-29T01:10:47.126Z,63.2496
2023-03-29T01:11:48.483Z,63.7629
2023-03-29T01:12:49.715Z,64.2453
2023-03-29T01:13:51.205Z,64.7603
2023-03-29T01:14:52.484Z,65.4091
2023-03-29T01:15:53.932Z,65.4145
2023-03-29T01:16:55.338Z,65.1853
2023-03-29T01:17:55.683Z,66.5937
2023-03-29T01:18:55.798Z,65.4862
2023-03-29T01:29:06.493Z,63.5880
2023-03-29T01:30:07.869Z,64.3570
2023-03-29T01:31:09.164Z,64.7913
2023-03-29T01:32:09.230Z,62.9550
2023-03-29T01:33:10.549Z,62.3569
2023-03-29T01:34:11.913Z,61.3697
2023-03-29T01:35:11.990Z,62.5064
2023-03-29T01:36:13.538Z,63.7465
2023-03-29T01:37:14.756Z,64.5751
2023-03-29T01:38:16.127Z,63.5229
2023-03-29T01:39:17.396Z,65.0372
2023-03-29T01:40:18.736Z,64.7349
2023-03-29T01:41:20.038Z,62.0625
2023-03-29T01:42:21.529Z,62.1845
2023-03-29T01:43:23.553Z,63.2542
2023-03-29T01:44:23.385Z,64.9937
2023-03-29T01:45:24.715Z,64.2237
2023-03-29T01:46:24.817Z,64.3828
2023-03-29T01:47:24.892Z,64.2074
2023-03-29T01:48:26.106Z,64.0690
2023-03-29T01:49:27.413Z,64.0572
2023-03-29T01:50:28.627Z,64.1546
2023-03-29T01:51:29.950Z,65.7628
2023-03-29T01:52:31.202Z,65.5236
2023-03-29T01:53:31.245Z,65.8515
2023-03-29T01:54:32.612Z,66.1433
2023-03-29T02:04:41.706Z,67.8656
2023-03-29T02:05:41.763Z,66.0841
2023-03-29T02:06:42.986Z,65.6543
2023-03-29T02:07:44.301Z,67.0677
2023-03-29T02:08:45.526Z,66.1877
2023-03-29T02:09:45.589Z,64.4132
2023-03-29T02:10:45.714Z,64.7640
2023-03-29T02:11:47.163Z,65.4608
2023-03-29T02:12:48.534Z,67.1976
2023-03-29T02:13:48.471Z,65.3271
2023-03-29T02:14:48.550Z,64.6521
2023-03-29T02:15:50.041Z,65.4293
2023-03-29T02:16:50.082Z,67.7988
2023-03-29T02:17:51.428Z,68.8749
2023-03-29T02:18:51.702Z,67.5416
2023-03-29T02:19:53.069Z,65.8076
2023-03-29T02:20:53.159Z,67.4764
2023-03-29T02:21:53.144Z,69.5495
2023-03-29T02:22:54.438Z,70.5852
2023-03-29T02:28:59.466Z,66.4005
2023-03-29T02:29:59.500Z,68.4916
2023-03-29T02:31:01.045Z,66.9524
2023-03-29T02:32:01.704Z,67.3465
2023-03-29T02:33:01.777Z,66.1935
2023-03-29T02:34:01.870Z,66.3317
2023-03-29T02:35:01.908Z,65.7130
2023-03-29T02:36:02.023Z,66.7878
2023-03-29T02:37:02.130Z,65.9517
2023-03-29T02:38:03.530Z,67.6604
2023-03-29T02:39:03.684Z,67.2466
2023-03-29T02:40:04.986Z,65.7319
2023-03-29T02:41:06.493Z,65.3682
2023-03-29T02:42:07.785Z,64.5253
2023-03-29T02:44:09.035Z,68.4841
2023-03-29T02:45:10.376Z,71.5147
2023-03-29T02:46:10.472Z,72.0542
2023-03-29T02:47:10.558Z,68.7841
2023-03-29T02:48:10.669Z,66.3045
2023-03-29T02:49:12.038Z,67.7852
2023-03-29T02:50:13.702Z,69.0848
2023-03-29T02:51:15.916Z,66.5446
2023-03-29T02:52:15.922Z,68.0359
2023-03-29T02:53:15.955Z,66.6639
2023-03-29T02:54:17.338Z,66.2184
2023-03-29T02:55:17.423Z,64.4160
2023-03-29T02:56:18.638Z,68.1345
2023-03-29T02:57:20.221Z,70.9187
2023-03-29T02:58:20.236Z,70.7122
2023-03-29T02:59:21.580Z,70.3535
2023-03-29T03:00:21.672Z,71.4832
2023-03-29T03:01:23.092Z,69.3365
2023-03-29T03:02:23.335Z,71.9031
2023-03-29T03:03:23.954Z,71.9436
2023-03-29T03:04:24.308Z,69.2727
2023-03-29T03:05:25.614Z,67.6317
2023-03-29T03:06:25.752Z,68.5012
2023-03-29T03:07:27.024Z,66.6642
2023-03-29T03:09:29.787Z,65.2197
2023-03-29T03:11:31.124Z,67.5612
2023-03-29T03:12:31.477Z,67.5616
2023-03-29T03:13:32.753Z,66.1430
2023-03-29T03:14:33.101Z,66.9237
2023-03-29T03:15:34.401Z,67.0845
2023-03-29T03:16:34.865Z,67.0925
2023-03-29T03:17:34.856Z,69.6085
2023-03-29T03:18:36.149Z,69.2032
2023-03-29T03:19:36.286Z,67.1796
2023-03-29T03:20:37.553Z,68.5023
2023-03-29T03:21:38.538Z,66.4643
2023-03-29T03:22:39.867Z,68.4536
2023-03-29T03:23:39.981Z,68.7472
2023-03-29T03:27:42.479Z,68.5336
2023-03-29T03:28:42.539Z,68.3974
2023-03-29T03:29:43.922Z,68.5613
2023-03-29T03:30:44.086Z,67.1821
2023-03-29T03:31:44.191Z,62.1783
2023-03-29T03:32:44.304Z,62.4805
2023-03-29T03:33:45.638Z,65.8655
2023-03-29T03:34:47.182Z,66.0214
2023-03-29T03:35:48.512Z,66.2211
2023-03-29T03:36:48.633Z,65.7785
2023-03-29T03:37:49.942Z,67.8791
2023-03-29T03:38:51.442Z,69.7054
2023-03-29T03:39:52.731Z,67.7833
2023-03-29T03:41:55.400Z,65.8122
2023-03-29T03:42:55.759Z,66.5009
2023-03-29T03:43:56.277Z,67.9621
2023-03-29T03:44:56.324Z,67.7355
2023-03-29T03:45:56.586Z,66.5978
2023-03-29T03:46:57.090Z,67.6395
2023-03-29T03:47:57.200Z,66.6180
2023-03-29T03:48:57.383Z,69.9239
2023-03-29T03:49:57.417Z,70.3561
2023-03-29T03:50:57.441Z,70.8846
2023-03-29T03:51:58.788Z,69.7908
2023-03-29T03:52:58.928Z,69.8514
2023-03-29T03:54:00.250Z,68.6054
2023-03-29T03:55:01.789Z,70.9624
2023-03-29T03:56:03.148Z,71.3281
2023-03-29T03:57:04.825Z,69.2070
2023-03-29T03:58:06.109Z,68.8633
2023-03-29T03:59:06.341Z,69.9043
2023-03-29T04:00:07.692Z,70.9600
2023-03-29T04:01:07.680Z,67.6593
2023-03-29T04:02:07.824Z,66.5650
2023-03-29T04:03:08.093Z,66.6080
2023-03-29T04:04:09.167Z,67.2104
2023-03-29T04:05:09.459Z,68.9452
2023-03-29T04:06:09.495Z,70.4313
2023-03-29T04:07:10.744Z,67.7307
2023-03-29T04:08:12.158Z,65.9462
2023-03-29T04:09:13.480Z,69.2680
2023-03-29T04:10:13.640Z,70.5192
2023-03-29T04:11:14.909Z,71.0820
2023-03-29T04:12:15.031Z,71.2116
2023-03-29T04:13:16.337Z,65.8907
2023-03-29T04:14:17.840Z,64.5561
2023-03-29T04:15:17.855Z,66.6334
2023-03-29T04:16:18.067Z,67.1898
2023-03-29T04:17:18.189Z,68.2507
2023-03-29T04:18:18.770Z,65.0270
2023-03-29T04:19:20.085Z,66.7526
2023-03-29T04:20:20.389Z,66.6698
2023-03-29T04:21:21.659Z,66.2969
2023-03-29T04:22:21.915Z,67.1684
2023-03-29T04:34:35.111Z,64.7518
2023-03-29T04:35:35.523Z,63.1934
2023-03-29T04:36:36.744Z,64.3624
2023-03-29T04:37:38.372Z,65.7438
2023-03-29T04:38:38.367Z,67.0198
2023-03-29T04:39:38.593Z,66.8797
2023-03-29T04:40:38.681Z,64.8951
2023-03-29T04:41:40.040Z,66.6987
2023-03-29T04:42:40.082Z,66.5371
2023-03-29T04:43:41.452Z,64.8478
2023-03-29T04:44:42.981Z,64.0526
2023-03-29T04:45:43.017Z,65.3957
2023-03-29T04:46:43.247Z,63.2877
2023-03-29T04:47:43.281Z,64.8548
2023-03-29T04:48:43.308Z,66.0220
2023-03-29T04:49:43.433Z,67.1655
2023-03-29T04:50:44.674Z,66.0326
2023-03-29T04:51:44.998Z,63.9356
2023-03-29T04:52:46.546Z,60.7088
2023-03-29T04:53:46.669Z,59.9872
2023-03-29T04:54:47.978Z,59.3651
2023-03-29T04:55:48.089Z,57.4002
2023-03-29T04:56:49.431Z,56.5447
2023-03-29T04:57:49.512Z,56.0787
2023-03-29T04:58:50.772Z,57.1570
2023-03-29T04:59:52.113Z,57.2531
2023-03-29T05:00:52.280Z,56.0235
2023-03-29T05:01:52.348Z,56.8114
2023-03-29T05:02:52.650Z,57.2705
2023-03-29T05:03:52.761Z,57.5343
2023-03-29T05:04:53.157Z,57.0582
2023-03-29T05:05:53.240Z,56.9828
2023-03-29T05:06:53.422Z,57.0832
2023-03-29T05:07:54.833Z,57.4305
2023-03-29T05:08:55.226Z,57.9788
2023-03-29T05:09:55.460Z,57.5825
2023-03-29T05:10:55.773Z,56.3387
2023-03-29T05:11:55.983Z,55.6188
2023-03-29T05:12:56.097Z,55.6783
2023-03-29T05:13:56.218Z,55.6296
2023-03-29T05:14:56.463Z,55.9737
2023-03-29T05:15:57.360Z,57.6501
2023-03-29T05:16:57.594Z,59.5034
2023-03-29T05:17:58.186Z,58.0816
2023-03-29T05:18:58.585Z,55.7918
2023-03-29T05:19:59.171Z,56.5112
2023-03-29T05:20:59.878Z,57.2998
2023-03-29T05:22:00.594Z,56.5909
2023-03-29T05:23:00.642Z,56.9336
2023-03-29T05:24:01.941Z,58.0004
2023-03-29T05:25:02.110Z,57.9687
2023-03-29T05:26:03.451Z,58.1798
2023-03-29T05:27:03.610Z,58.9740
2023-03-29T05:28:03.679Z,59.3766
2023-03-29T05:29:03.640Z,59.2890
2023-03-29T05:30:03.777Z,58.3610
2023-03-29T05:31:04.273Z,58.7347
2023-03-29T05:32:04.853Z,57.7894
2023-03-29T05:33:04.885Z,57.3956
2023-03-29T05:34:06.363Z,57.9908
2023-03-29T05:35:06.472Z,56.6598
2023-03-29T05:36:06.823Z,56.3220
2023-03-29T05:37:07.086Z,56.7332
2023-03-29T05:38:07.248Z,61.4138
2023-03-29T05:39:07.323Z,60.7615
2023-03-29T05:40:08.127Z,61.1555
2023-03-29T05:41:09.284Z,58.1141
2023-03-29T05:42:09.579Z,58.0082
2023-03-29T05:43:09.458Z,58.1978
2023-03-29T05:44:09.624Z,57.8355
2023-03-29T05:46:10.862Z,57.2171
2023-03-29T05:47:11.214Z,59.1282
2023-03-29T05:48:11.290Z,59.0919
2023-03-29T05:49:11.546Z,58.3812
2023-03-29T05:50:11.678Z,59.3500
2023-03-29T05:51:12.552Z,58.2739
2023-03-29T05:52:12.717Z,58.3429
2023-03-29T05:53:12.874Z,58.2587
2023-03-29T05:54:14.248Z,59.2896
2023-03-29T05:55:14.381Z,59.8476
2023-03-29T05:56:14.494Z,60.8700
2023-03-29T05:57:14.706Z,60.0146
2023-03-29T05:58:14.870Z,60.0997
2023-03-29T05:59:15.033Z,60.9725
2023-03-29T06:00:15.058Z,60.4271
2023-03-29T06:01:15.810Z,60.8217
2023-03-29T06:02:15.952Z,60.6641
2023-03-29T06:03:22.553Z,60.3804
2023-03-29T06:04:23.155Z,61.6100
2023-03-29T06:05:23.331Z,60.9117
2023-03-29T06:06:24.783Z,60.9049
2023-03-29T06:07:24.939Z,61.6407
2023-03-29T06:08:25.071Z,61.8260
2023-03-29T06:09:25.355Z,61.7367
2023-03-29T06:16:29.731Z,59.7322
2023-03-29T06:17:30.226Z,60.1232
2023-03-29T06:18:30.814Z,61.4828
2023-03-29T06:19:30.843Z,59.6155
2023-03-29T06:20:30.931Z,59.0525
2023-03-29T06:21:31.127Z,57.3618
2023-03-29T06:22:32.498Z,57.7763
2023-03-29T06:23:32.572Z,57.1326
2023-03-29T06:24:33.023Z,56.7806
2023-03-29T06:25:34.114Z,57.7540
2023-03-29T06:26:34.399Z,58.2317
2023-03-29T06:27:34.497Z,59.3908
2023-03-29T06:28:34.540Z,56.8825
2023-03-29T06:29:34.786Z,58.8034
2023-03-29T06:30:35.747Z,58.8065
2023-03-29T06:31:36.531Z,59.5027
2023-03-29T06:32:36.874Z,58.1896
2023-03-29T06:33:37.047Z,60.6313
2023-03-29T06:34:38.576Z,59.6247
2023-03-29T06:35:37.599Z,56.5199
2023-03-29T06:36:37.692Z,58.8130
2023-03-29T06:37:37.910Z,58.1616
2023-03-29T06:38:37.927Z,57.4427
2023-03-29T06:39:38.173Z,57.3044
2023-03-29T06:40:38.203Z,57.9692
2023-03-29T06:41:38.231Z,57.5687
2023-03-29T06:42:38.379Z,56.8062
2023-03-29T06:43:38.393Z,57.4507
2023-03-29T06:44:38.414Z,56.9297
2023-03-29T06:45:38.668Z,56.1972
2023-03-29T06:46:39.019Z,54.9407
2023-03-29T06:47:39.086Z,56.3636
2023-03-29T06:48:39.362Z,55.7837
2023-03-29T06:49:39.387Z,56.4784
2023-03-29T06:50:39.493Z,56.3337
2023-03-29T06:51:39.532Z,55.5573
2023-03-29T06:52:39.731Z,55.3484
2023-03-29T06:53:41.104Z,56.5430
2023-03-29T06:54:41.260Z,58.4031
2023-03-29T06:55:41.661Z,56.5559
2023-03-29T06:56:43.121Z,57.1377
2023-03-29T06:57:43.635Z,57.2616
2023-03-29T06:58:43.681Z,56.5791
2023-03-29T06:59:43.955Z,55.2051
2023-03-29T07:00:44.403Z,55.2083
2023-03-29T07:01:44.854Z,54.6867
2023-03-29T07:02:44.906Z,55.4870
2023-03-29T07:03:46.732Z,56.0682
2023-03-29T07:04:47.149Z,55.1955
2023-03-29T07:05:47.428Z,55.0658
2023-03-29T07:06:47.476Z,55.5960
2023-03-29T07:07:47.764Z,56.7403
2023-03-29T07:08:47.956Z,57.7702
2023-03-29T07:09:48.006Z,57.5607
2023-03-29T07:10:48.121Z,61.9735
2023-03-29T07:11:48.332Z,64.4119
2023-03-29T07:12:48.516Z,65.9436
2023-03-29T07:13:49.043Z,64.3345
2023-03-29T07:14:49.124Z,64.7612
2023-03-29T07:15:49.242Z,67.7168
2023-03-29T07:16:49.326Z,67.4467
2023-03-29T07:17:49.548Z,68.2135
2023-03-29T07:18:49.565Z,69.0502
2023-03-29T07:19:49.636Z,69.2532
2023-03-29T07:20:49.815Z,69.9816
2023-03-29T07:21:49.852Z,68.6988
2023-03-29T07:22:49.862Z,69.8158
2023-03-29T07:23:50.079Z,68.7111
2023-03-29T07:24:50.085Z,67.9820
2023-03-29T07:25:50.114Z,67.2174
2023-03-29T07:27:03.261Z,68.3081
2023-03-29T07:27:50.684Z,68.6466
2023-03-29T07:28:50.730Z,67.8265
2023-03-29T07:29:50.877Z,67.7429
2023-03-29T07:30:51.569Z,67.5196
2023-03-29T07:31:51.778Z,68.4462
2023-03-29T07:32:52.234Z,68.4537
2023-03-29T07:33:53.332Z,65.8320
2023-03-29T07:34:53.446Z,68.9889
2023-03-29T07:35:53.518Z,68.4109
2023-03-29T07:36:53.781Z,68.4708
2023-03-29T07:37:53.781Z,68.4292
2023-03-29T07:38:56.301Z,68.7626
2023-03-29T07:39:55.289Z,68.0265
2023-03-29T07:40:55.504Z,68.6990
2023-03-29T07:41:55.532Z,69.0932
2023-03-29T07:42:55.561Z,68.1876
2023-03-29T07:43:55.718Z,62.9852
2023-03-29T07:44:55.734Z,63.9683
2023-03-29T07:45:55.989Z,66.6311
2023-03-29T07:46:56.170Z,65.4701
2023-03-29T07:47:56.478Z,66.6976
2023-03-29T07:48:56.658Z,65.9760
2023-03-29T07:49:57.000Z,60.4487
2023-03-29T07:50:57.082Z,64.5114
2023-03-29T07:51:57.848Z,68.3880
2023-03-29T07:52:58.126Z,66.9969
2023-03-29T07:53:58.255Z,66.3621
2023-03-29T07:54:58.495Z,67.1162
2023-03-29T07:55:58.590Z,64.2353
2023-03-29T07:56:58.826Z,62.4432
2023-03-29T07:57:59.167Z,62.0596
2023-03-29T07:58:59.321Z,62.5630
2023-03-29T07:59:59.548Z,62.3303
2023-03-29T08:00:59.772Z,60.9403
2023-03-29T08:02:00.918Z,60.1270
2023-03-29T08:03:01.040Z,63.2706
2023-03-29T08:04:01.414Z,64.0554
2023-03-29T08:05:01.983Z,62.8688
2023-03-29T08:06:02.585Z,64.3751
2023-03-29T08:07:02.730Z,64.1928
2023-03-29T08:08:02.830Z,64.6540
2023-03-29T08:09:03.122Z,64.6533
2023-03-29T08:10:03.314Z,62.1222
2023-03-29T08:11:03.687Z,63.9319
2023-03-29T08:12:04.020Z,62.3789
2023-03-29T08:13:04.089Z,60.2398
2023-03-29T08:14:04.248Z,63.3333
2023-03-29T08:15:04.432Z,64.7875
2023-03-29T08:16:04.842Z,65.7712
2023-03-29T08:17:05.130Z,63.8465
2023-03-29T08:18:05.904Z,63.0859
2023-03-29T08:19:06.711Z,65.3007
2023-03-29T08:20:07.307Z,65.9485
2023-03-29T08:21:07.901Z,64.9601
2023-03-29T08:22:07.924Z,65.7699
2023-03-29T08:23:08.234Z,64.8387
2023-03-29T08:24:08.507Z,66.3292
2023-03-29T08:25:09.779Z,65.8700
2023-03-29T08:26:09.924Z,64.9953
2023-03-29T08:27:10.251Z,66.1958
2023-03-29T08:28:10.387Z,67.1367
2023-03-29T08:29:10.485Z,65.7703
2023-03-29T08:30:10.742Z,65.7141
2023-03-29T08:31:11.417Z,66.3074
2023-03-29T08:32:11.654Z,64.6866
2023-03-29T08:33:12.058Z,65.2359
2023-03-29T08:34:12.501Z,63.4319
2023-03-29T08:35:12.715Z,65.4133
2023-03-29T08:36:13.044Z,63.6239
2023-03-29T08:37:13.140Z,63.0933
2023-03-29T08:38:13.333Z,63.1767
2023-03-29T08:39:13.646Z,62.3734
2023-03-29T08:40:13.712Z,62.8549
2023-03-29T08:41:14.553Z,62.6260
2023-03-29T08:42:14.585Z,62.4476
2023-03-29T08:43:14.662Z,62.7825
2023-03-29T08:44:14.938Z,61.6943
2023-03-29T08:45:15.006Z,61.3591
2023-03-29T08:46:15.317Z,60.7692
2023-03-29T08:47:16.202Z,60.0107
2023-03-29T08:48:16.663Z,61.0673
2023-03-29T08:49:16.830Z,61.5359
2023-03-29T08:50:16.952Z,62.8118
2023-03-29T08:51:18.016Z,58.9823
2023-03-29T08:52:18.174Z,61.6691
2023-03-29T08:53:19.409Z,63.2208
2023-03-29T08:54:19.569Z,61.8780
2023-03-29T08:55:19.904Z,59.2025
2023-03-29T08:56:20.051Z,58.6935
2023-03-29T08:57:20.710Z,60.1667
2023-03-29T08:58:20.860Z,57.7395
2023-03-29T08:59:21.318Z,60.0681
2023-03-29T09:00:21.406Z,59.6128
2023-03-29T09:01:21.521Z,58.8216
2023-03-29T09:02:21.979Z,58.5898
2023-03-29T09:03:22.492Z,58.9538
2023-03-29T09:04:22.781Z,57.8883
2023-03-29T09:05:22.947Z,55.7639
2023-03-29T09:06:23.212Z,56.6974
2023-03-29T09:07:26.463Z,56.6101
2023-03-29T09:08:24.041Z,57.8978
2023-03-29T09:09:25.004Z,57.5334
2023-03-29T09:10:25.210Z,56.7451
2023-03-29T09:11:25.512Z,56.9459
2023-03-29T09:12:25.612Z,56.5273
2023-03-29T09:13:25.935Z,57.1943
2023-03-29T09:14:26.091Z,58.1235
2023-03-29T09:15:26.395Z,57.6576
2023-03-29T09:16:26.486Z,57.6160
2023-03-29T09:17:27.128Z,59.1219
2023-03-29T09:18:27.464Z,59.3381
2023-03-29T09:19:27.659Z,58.1157
2023-03-29T09:20:28.010Z,59.7151
2023-03-29T09:21:28.217Z,61.2598
2023-03-29T09:22:28.297Z,61.9399
2023-03-29T09:23:28.542Z,60.0167
2023-03-29T09:24:28.881Z,59.8923
2023-03-29T09:25:29.094Z,59.2481
2023-03-29T09:26:29.490Z,60.6954
2023-03-29T09:27:29.750Z,59.2905
2023-03-29T09:28:29.907Z,59.7056
2023-03-29T09:29:31.238Z,59.3567
2023-03-29T09:30:31.372Z,59.2992
2023-03-29T09:31:31.817Z,58.5314
2023-03-29T09:32:31.961Z,58.6134
2023-03-29T09:33:32.216Z,58.8390
2023-03-29T09:34:32.324Z,59.8953
2023-03-29T09:35:32.463Z,60.3750
2023-03-29T09:36:32.758Z,60.2051
2023-03-29T09:37:32.869Z,60.0613
2023-03-29T09:38:33.221Z,60.3295
2023-03-29T09:39:33.237Z,59.5991
2023-03-29T09:40:33.359Z,61.8626
2023-03-29T09:41:33.603Z,61.3266
2023-03-29T09:42:33.717Z,59.7959
2023-03-29T09:43:33.768Z,60.8933
2023-03-29T09:44:33.976Z,59.0198
2023-03-29T09:45:34.121Z,60.9759
2023-03-29T09:46:34.520Z,59.7563
2023-03-29T09:47:34.658Z,60.7185
2023-03-29T09:48:35.251Z,58.7836
2023-03-29T09:49:35.356Z,58.2997
2023-03-29T09:50:35.918Z,58.5234
2023-03-29T09:51:36.007Z,58.6295
2023-03-29T09:52:36.315Z,58.5918
2023-03-29T09:53:36.485Z,58.9864
2023-03-29T09:54:36.809Z,58.9364
2023-03-29T09:55:37.073Z,58.5860
2023-03-29T09:56:37.338Z,58.0576
2023-03-29T09:57:37.525Z,58.6696
2023-03-29T09:58:37.894Z,60.3141
2023-03-29T09:59:38.017Z,60.7766
2023-03-29T10:00:38.141Z,59.7633
2023-03-29T10:01:38.794Z,59.8470
2023-03-29T10:02:39.302Z,57.6280
2023-03-29T10:03:39.529Z,58.9680
2023-03-29T10:04:39.994Z,60.5232
2023-03-29T10:05:40.122Z,60.0069
2023-03-29T10:06:40.214Z,59.5960
2023-03-29T10:07:40.434Z,59.3855
2023-03-29T10:08:41.838Z,58.4626
2023-03-29T10:09:42.152Z,57.3915
2023-03-29T10:10:42.567Z,58.9649
2023-03-29T10:11:42.893Z,58.2176
2023-03-29T10:12:43.265Z,58.0458
2023-03-29T10:13:43.366Z,57.8802
2023-03-29T10:14:43.532Z,58.2350
2023-03-29T10:15:44.550Z,56.8023
2023-03-29T10:16:44.775Z,56.0973
2023-03-29T10:17:45.143Z,56.6355
2023-03-29T10:18:45.370Z,59.3273
2023-03-29T10:19:45.650Z,57.5880
2023-03-29T10:20:45.854Z,57.8552
2023-03-29T10:21:46.156Z,57.6171
2023-03-29T10:22:46.300Z,58.3754
2023-03-29T10:23:46.763Z,55.8502
2023-03-29T10:24:46.862Z,56.4363
2023-03-29T10:25:47.135Z,57.0080
2023-03-29T10:26:47.320Z,58.5046
2023-03-29T10:27:47.827Z,58.2598
2023-03-29T10:28:48.049Z,57.8008
2023-03-29T10:29:48.413Z,55.9909
2023-03-29T10:30:48.690Z,55.5892
2023-03-29T10:31:49.257Z,56.2384
2023-03-29T10:32:49.804Z,55.0824
2023-03-29T10:33:50.038Z,56.4665
2023-03-29T10:34:50.515Z,55.3125
2023-03-29T10:35:50.738Z,55.3480
2023-03-29T10:36:51.103Z,55.2981
2023-03-29T10:37:51.581Z,55.4024
2023-03-29T10:38:52.004Z,53.3235
2023-03-29T10:39:52.292Z,51.5451
2023-03-29T10:40:52.723Z,53.2306
2023-03-29T10:41:53.114Z,54.0586
2023-03-29T10:42:53.226Z,51.7255
2023-03-29T10:43:54.376Z,50.9521
2023-03-29T10:44:54.835Z,53.5467
2023-03-29T10:45:55.522Z,53.6149
2023-03-29T10:46:56.782Z,54.6733
2023-03-29T10:47:57.117Z,54.6926
2023-03-29T10:48:57.520Z,54.4604
2023-03-29T10:49:58.652Z,55.5929
2023-03-29T10:50:59.032Z,51.9290
2023-03-29T10:51:59.219Z,47.8442
2023-03-29T10:52:59.806Z,50.3233
2023-03-29T10:54:00.048Z,51.3484
2023-03-29T10:55:00.563Z,52.6805
2023-03-29T10:56:00.757Z,57.2679
2023-03-29T10:57:01.139Z,55.1687
2023-03-29T10:58:01.588Z,55.6863
2023-03-29T10:59:01.811Z,58.0865
2023-03-29T11:00:02.265Z,56.4632
2023-03-29T11:01:02.778Z,57.7322
2023-03-29T11:02:03.539Z,57.7448
2023-03-29T11:03:04.236Z,60.0904
2023-03-29T11:04:05.488Z,59.3500
2023-03-29T11:05:06.067Z,60.5464
2023-03-29T11:06:06.441Z,58.1610
2023-03-29T11:07:06.858Z,58.2842
2023-03-29T11:08:07.086Z,56.5467
2023-03-29T11:09:07.440Z,55.1145
2023-03-29T11:10:07.870Z,56.2855
2023-03-29T11:11:08.348Z,53.9771
2023-03-29T11:12:15.583Z,53.3515
2023-03-29T11:13:09.668Z,53.3620
2023-03-29T11:14:10.476Z,51.0378
2023-03-29T11:15:10.662Z,50.2134
2023-03-29T11:16:11.089Z,50.6131
2023-03-29T11:17:11.330Z,50.9222
2023-03-29T11:18:11.722Z,49.2582
2023-03-29T11:19:12.106Z,50.3097
2023-03-29T11:20:12.530Z,49.4141
2023-03-29T11:21:12.928Z,50.4616
2023-03-29T11:22:13.101Z,49.3338
2023-03-29T11:23:13.506Z,47.8743
2023-03-29T11:24:13.708Z,49.7488
2023-03-29T11:25:14.124Z,49.1121
2023-03-29T11:26:14.490Z,49.7829
2023-03-29T11:27:14.704Z,48.7127
2023-03-29T11:28:15.133Z,46.6415
2023-03-29T11:29:15.289Z,44.1171
2023-03-29T11:30:15.950Z,45.0498
2023-03-29T11:31:16.793Z,47.4607
2023-03-29T11:32:17.112Z,43.7808
2023-03-29T11:33:18.039Z,43.1822
2023-03-29T11:34:18.301Z,43.8129
2023-03-29T11:35:18.678Z,43.8060
2023-03-29T11:36:19.200Z,43.4776
2023-03-29T11:37:19.416Z,41.0896
2023-03-29T11:38:19.940Z,42.1570
2023-03-29T11:39:20.404Z,43.7513
2023-03-29T11:40:20.691Z,44.1679
2023-03-29T11:41:21.109Z,42.1429
2023-03-29T11:42:21.317Z,42.8416
2023-03-29T11:43:21.629Z,42.0558
2023-03-29T11:44:22.008Z,41.2768
2023-03-29T11:45:22.255Z,41.1795
2023-03-29T11:46:22.847Z,42.3790
2023-03-29T11:47:23.511Z,44.5033
2023-03-29T11:48:24.112Z,46.2596
2023-03-29T11:49:24.546Z,45.0036
2023-03-29T11:50:25.975Z,46.3037
2023-03-29T11:51:26.154Z,44.2820
2023-03-29T11:52:26.509Z,44.5301
2023-03-29T11:53:26.769Z,44.9773
2023-03-29T11:54:27.164Z,46.1308
2023-03-29T11:55:27.979Z,45.9356
2023-03-29T11:56:28.253Z,46.9254
2023-03-29T11:57:28.809Z,48.5040
2023-03-29T11:58:29.373Z,47.0566
2023-03-29T11:59:29.667Z,48.4059
2023-03-29T12:00:30.039Z,48.0951
2023-03-29T12:01:30.484Z,48.0489
2023-03-29T12:02:31.249Z,50.6360
2023-03-29T12:03:31.911Z,49.8779
2023-03-29T12:04:33.120Z,49.7133
2023-03-29T12:05:33.531Z,50.1823
2023-03-29T12:06:33.786Z,49.1027
2023-03-29T12:07:34.205Z,49.2987
2023-03-29T12:08:34.539Z,48.9701
2023-03-29T12:09:34.731Z,49.7947
2023-03-29T12:10:35.177Z,50.8771
2023-03-29T12:11:35.352Z,52.3193
2023-03-29T12:12:36.280Z,50.8855
2023-03-29T12:13:36.669Z,51.5055
2023-03-29T12:14:37.348Z,51.0373
2023-03-29T12:15:37.791Z,50.8862
2023-03-29T12:16:38.104Z,51.9768
2023-03-29T12:17:38.739Z,52.2826
2023-03-29T12:18:39.691Z,53.9593
2023-03-29T12:19:42.658Z,52.1211
2023-03-29T12:20:41.183Z,51.4033
2023-03-29T12:21:42.065Z,52.7704
2023-03-29T12:22:42.531Z,50.7522
2023-03-29T12:23:42.711Z,52.7856
2023-03-29T12:24:43.064Z,52.6495
2023-03-29T12:25:43.669Z,52.9137
2023-03-29T12:26:43.927Z,55.3415
2023-03-29T12:27:44.286Z,54.5353
2023-03-29T12:28:44.651Z,54.8706
2023-03-29T12:29:44.954Z,55.1392
2023-03-29T12:30:45.358Z,54.9287
2023-03-29T12:31:45.868Z,55.4688
2023-03-29T12:32:46.473Z,55.3037
2023-03-29T12:33:46.883Z,52.1363
2023-03-29T12:34:47.226Z,52.4226
2023-03-29T12:35:47.535Z,51.9642
2023-03-29T12:36:47.902Z,52.6017
2023-03-29T12:37:48.140Z,52.7585
2023-03-29T12:38:48.486Z,53.0310
2023-03-29T12:39:48.898Z,54.1465
2023-03-29T12:40:49.260Z,53.9882
2023-03-29T12:41:49.584Z,52.7758
2023-03-29T12:42:49.858Z,50.8694
2023-03-29T12:43:50.317Z,51.3156
2023-03-29T12:44:50.866Z,53.3931
2023-03-29T12:45:51.187Z,52.3156
2023-03-29T12:46:52.293Z,53.5298
2023-03-29T12:47:52.763Z,52.3240
2023-03-29T12:48:53.207Z,49.5489
2023-03-29T12:49:53.825Z,48.7066
2023-03-29T12:50:54.051Z,45.5511
2023-03-29T12:51:54.454Z,49.5997
2023-03-29T12:52:54.923Z,50.8760
2023-03-29T12:53:55.115Z,50.4917
2023-03-29T12:54:55.465Z,50.2619
2023-03-29T12:55:55.921Z,51.9647
2023-03-29T12:56:56.685Z,52.4754
2023-03-29T12:57:57.024Z,52.3813
2023-03-29T12:58:57.241Z,55.9170
2023-03-29T12:59:57.662Z,55.1532
2023-03-29T13:00:58.210Z,54.2318
2023-03-29T13:01:58.917Z,55.4806